createdAt,value
2023-02-06T00:01:45.566Z,-5.53
2023-02-06T00:04:12.282Z,-5.54
2023-02-06T00:06:38.871Z,-5.48
2023-02-06T00:09:05.406Z,-5.45
2023-02-06T00:11:31.862Z,-5.49
2023-02-06T00:13:58.413Z,-5.55
2023-02-06T00:16:26.363Z,-5.57
2023-02-06T00:18:53.440Z,-5.57
2023-02-06T00:21:21.944Z,-5.57
2023-02-06T00:23:49.052Z,-5.55
2023-02-06T00:26:15.500Z,-5.52
2023-02-06T00:28:41.919Z,-5.50
2023-02-06T00:31:08.920Z,-5.54
2023-02-06T00:33:35.866Z,-5.54
2023-02-06T00:36:02.294Z,-5.45
2023-02-06T00:38:28.904Z,-5.45
2023-02-06T00:40:55.320Z,-5.48
2023-02-06T00:43:22.171Z,-5.57
2023-02-06T00:45:55.326Z,-5.61
2023-02-06T00:48:22.174Z,-5.48
2023-02-06T00:50:49.588Z,-5.50
2023-02-06T00:53:16.015Z,-5.54
2023-02-06T00:55:42.522Z,-5.63
2023-02-06T00:58:09.214Z,-5.61
2023-02-06T01:00:35.720Z,-5.56
2023-02-06T01:03:02.245Z,-5.53
2023-02-06T01:05:28.813Z,-5.46
2023-02-06T01:07:55.416Z,-5.46
2023-02-06T01:10:21.868Z,-5.63
2023-02-06T01:12:48.366Z,-5.56
2023-02-06T01:15:14.844Z,-5.49
2023-02-06T01:17:41.525Z,-5.50
2023-02-06T01:20:09.331Z,-5.52
2023-02-06T01:22:36.169Z,-5.46
2023-02-06T01:25:03.434Z,-5.53
2023-02-06T01:27:29.960Z,-5.58
2023-02-06T01:29:56.570Z,-5.50
2023-02-06T01:32:23.062Z,-5.42
2023-02-06T01:34:49.495Z,-5.40
2023-02-06T01:37:16.005Z,-5.44
2023-02-06T01:39:42.503Z,-5.53
2023-02-06T01:42:10.954Z,-5.47
2023-02-06T01:44:37.846Z,-5.56
2023-02-06T01:47:04.297Z,-5.61
2023-02-06T01:49:35.072Z,-5.63
2023-02-06T01:52:13.234Z,-5.56
2023-02-06T01:54:40.294Z,-5.58
2023-02-06T01:57:08.588Z,-5.60
2023-02-06T01:59:35.724Z,-5.62
2023-02-06T02:02:03.323Z,-5.58
2023-02-06T02:04:32.018Z,-5.57
2023-02-06T02:07:18.729Z,-5.61
2023-02-06T02:09:45.274Z,-5.56
2023-02-06T02:12:12.120Z,-5.59
2023-02-06T02:14:39.733Z,-5.67
2023-02-06T02:17:21.533Z,-5.72
2023-02-06T02:19:47.970Z,-5.75
2023-02-06T02:22:32.785Z,-5.72
2023-02-06T02:25:18.092Z,-5.79
2023-02-06T02:27:56.888Z,-5.77
2023-02-06T02:30:29.448Z,-5.80
2023-02-06T02:33:14.433Z,-5.81
2023-02-06T02:35:48.096Z,-5.77
2023-02-06T02:38:31.402Z,-5.75
2023-02-06T02:41:15.625Z,-5.64
2023-02-06T02:43:45.124Z,-5.68
2023-02-06T02:46:19.879Z,-5.58
2023-02-06T02:48:48.420Z,-5.64
2023-02-06T02:53:58.405Z,-5.62
2023-02-06T02:56:25.718Z,-5.65
2023-02-06T02:58:55.155Z,-5.53
2023-02-06T03:01:25.872Z,-5.39
2023-02-06T03:03:54.498Z,-5.30
2023-02-06T03:06:35.102Z,-5.26
2023-02-06T03:09:01.536Z,-5.23
2023-02-06T03:11:28.199Z,-5.11
2023-02-06T03:13:57.878Z,-5.06
2023-02-06T03:16:31.309Z,-5.11
2023-02-06T03:19:15.262Z,-5.03
2023-02-06T03:21:42.896Z,-4.81
2023-02-06T03:24:12.361Z,-4.78
2023-02-06T03:26:40.205Z,-4.60
2023-02-06T03:29:08.778Z,-4.61
2023-02-06T03:31:45.091Z,-4.50
2023-02-06T03:34:11.588Z,-4.41
2023-02-06T03:36:38.218Z,-4.59
2023-02-06T03:39:04.657Z,-4.46
2023-02-06T03:41:33.580Z,-4.41
2023-02-06T03:44:01.577Z,-4.32
2023-02-06T03:46:29.249Z,-4.25
2023-02-06T03:48:58.328Z,-4.29
2023-02-06T03:51:31.022Z,-4.22
2023-02-06T03:53:59.902Z,-4.13
2023-02-06T03:56:33.137Z,-4.12
2023-02-06T03:59:00.019Z,-4.08
2023-02-06T04:01:26.939Z,-4.12
2023-02-06T04:03:53.766Z,-4.02
2023-02-06T04:06:20.535Z,-4.03
2023-02-06T04:08:47.028Z,-3.95
2023-02-06T04:11:13.475Z,-3.92
2023-02-06T04:13:39.894Z,-3.97
2023-02-06T04:16:06.404Z,-3.99
2023-02-06T04:18:32.906Z,-3.99
2023-02-06T04:21:06.772Z,-3.79
2023-02-06T04:23:33.695Z,-3.83
2023-02-06T04:26:00.229Z,-3.67
2023-02-06T04:28:26.699Z,-3.63
2023-02-06T04:30:53.268Z,-3.45
2023-02-06T04:33:19.750Z,-3.65
2023-02-06T04:35:47.035Z,-3.63
2023-02-06T04:38:13.535Z,-3.85
2023-02-06T04:40:40.023Z,-4.06
2023-02-06T04:43:06.444Z,-3.88
2023-02-06T04:45:32.915Z,-3.68
2023-02-06T04:47:59.651Z,-3.79
2023-02-06T04:50:29.352Z,-3.61
2023-02-06T04:52:55.790Z,-3.72
2023-02-06T04:55:22.812Z,-3.59
2023-02-06T04:57:49.386Z,-3.66
2023-02-06T05:00:16.080Z,-3.72
2023-02-06T05:02:42.643Z,-3.65
2023-02-06T05:05:09.617Z,-3.75
2023-02-06T05:07:36.249Z,-3.59
2023-02-06T05:10:02.783Z,-3.69
2023-02-06T05:12:29.270Z,-3.71
2023-02-06T05:14:56.015Z,-3.67
2023-02-06T05:17:22.524Z,-3.53
2023-02-06T05:19:49.070Z,-3.57
2023-02-06T05:22:15.560Z,-3.48
2023-02-06T05:24:42.016Z,-3.47
2023-02-06T05:27:08.620Z,-3.52
2023-02-06T05:29:35.088Z,-3.42
2023-02-06T05:32:01.560Z,-3.50
2023-02-06T05:34:28.064Z,-3.40
2023-02-06T05:36:54.514Z,-3.49
2023-02-06T05:39:20.993Z,-3.38
2023-02-06T05:41:47.484Z,-3.41
2023-02-06T05:44:13.920Z,-3.50
2023-02-06T05:46:40.451Z,-3.46
2023-02-06T05:49:07.041Z,-3.44
2023-02-06T05:51:33.606Z,-3.50
2023-02-06T05:54:00.073Z,-3.36
2023-02-06T05:56:26.568Z,-3.44
2023-02-06T05:58:53.027Z,-3.41
2023-02-06T06:01:19.524Z,-3.35
2023-02-06T06:03:46.017Z,-3.39
2023-02-06T06:06:12.642Z,-3.29
2023-02-06T06:08:39.382Z,-3.27
2023-02-06T06:11:07.359Z,-3.18
2023-02-06T06:13:33.926Z,-3.12
2023-02-06T06:16:00.460Z,-3.27
2023-02-06T06:18:27.044Z,-3.17
2023-02-06T06:20:53.548Z,-3.22
2023-02-06T06:23:20.169Z,-3.28
2023-02-06T06:25:47.288Z,-3.27
2023-02-06T06:28:13.884Z,-3.15
2023-02-06T06:30:40.451Z,-3.15
2023-02-06T06:33:07.006Z,-3.05
2023-02-06T06:35:33.610Z,-3.15
2023-02-06T06:38:00.167Z,-3.06
2023-02-06T06:40:26.658Z,-3.02
2023-02-06T06:42:53.220Z,-3.01
2023-02-06T06:45:19.705Z,-2.96
2023-02-06T06:47:46.160Z,-3.00
2023-02-06T06:50:12.661Z,-2.93
2023-02-06T06:52:39.192Z,-2.91
2023-02-06T06:55:05.867Z,-2.93
2023-02-06T06:57:32.617Z,-2.95
2023-02-06T06:59:59.183Z,-3.07
2023-02-06T07:02:25.795Z,-3.02
2023-02-06T07:04:52.217Z,-2.97
2023-02-06T07:07:18.793Z,-3.06
2023-02-06T07:09:45.228Z,-2.89
2023-02-06T07:12:11.655Z,-2.84
2023-02-06T07:14:39.663Z,-2.79
2023-02-06T07:17:06.092Z,-2.79
2023-02-06T07:19:32.598Z,-2.85
2023-02-06T07:21:59.030Z,-2.77
2023-02-06T07:24:25.472Z,-2.87
2023-02-06T07:26:52.976Z,-2.77
2023-02-06T07:29:19.534Z,-2.80
2023-02-06T07:31:46.054Z,-2.68
2023-02-06T07:34:12.678Z,-2.71
2023-02-06T07:36:39.139Z,-2.61
2023-02-06T07:39:05.658Z,-2.56
2023-02-06T07:41:32.139Z,-2.44
2023-02-06T07:43:58.632Z,-2.40
2023-02-06T07:46:25.320Z,-2.29
2023-02-06T07:48:51.995Z,-2.43
2023-02-06T07:51:18.599Z,-2.43
2023-02-06T07:53:45.029Z,-2.21
2023-02-06T07:56:15.775Z,-2.21
2023-02-06T07:58:42.562Z,-2.21
2023-02-06T08:01:09.438Z,-2.19
2023-02-06T08:03:35.962Z,-2.13
2023-02-06T08:06:07.627Z,-1.98
2023-02-06T08:08:34.109Z,-1.85
2023-02-06T08:11:03.985Z,-1.85
2023-02-06T08:13:30.423Z,-1.84
2023-02-06T08:15:56.873Z,-1.74
2023-02-06T08:18:23.560Z,-1.73
2023-02-06T08:20:50.154Z,-1.51
2023-02-06T08:23:16.584Z,-1.55
2023-02-06T08:25:43.017Z,-1.53
2023-02-06T08:28:10.164Z,-1.58
2023-02-06T08:30:37.067Z,-1.54
2023-02-06T08:33:03.742Z,-1.51
2023-02-06T08:35:30.185Z,-1.66
2023-02-06T08:37:56.622Z,-1.48
2023-02-06T08:40:23.242Z,-1.50
2023-02-06T08:42:51.093Z,-1.70
2023-02-06T08:45:17.759Z,-1.55
2023-02-06T08:47:44.203Z,-1.65
2023-02-06T08:50:10.657Z,-1.46
2023-02-06T08:52:37.122Z,-1.40
2023-02-06T08:55:03.567Z,-1.35
2023-02-06T08:57:30.076Z,-1.19
2023-02-06T08:59:56.782Z,-1.25
2023-02-06T09:02:23.367Z,-1.23
2023-02-06T09:04:49.899Z,-1.24
2023-02-06T09:07:17.328Z,-1.11
2023-02-06T09:09:43.899Z,-1.19
2023-02-06T09:12:11.951Z,-1.21
2023-02-06T09:14:38.584Z,-1.04
2023-02-06T09:17:05.226Z,-1.00
2023-02-06T09:19:31.660Z,-0.80
2023-02-06T09:21:58.143Z,-0.89
2023-02-06T09:24:25.413Z,-0.61
2023-02-06T09:26:59.765Z,-0.37
2023-02-06T09:29:28.969Z,-0.47
2023-02-06T09:31:57.435Z,-0.59
2023-02-06T09:34:25.840Z,-0.41
2023-02-06T09:36:54.600Z,-0.44
2023-02-06T09:39:21.431Z,-0.51
2023-02-06T09:41:51.055Z,-0.61
2023-02-06T09:44:32.541Z,-0.62
2023-02-06T09:47:02.955Z,-0.52
2023-02-06T09:49:35.712Z,-0.65
2023-02-06T09:52:15.379Z,-0.67
2023-02-06T09:54:51.825Z,-0.58
2023-02-06T09:57:31.381Z,-0.66
2023-02-06T10:00:11.230Z,-0.63
2023-02-06T10:02:46.881Z,-0.46
2023-02-06T10:05:32.313Z,-0.48
2023-02-06T10:08:14.418Z,-0.44
2023-02-06T10:10:45.053Z,-0.34
2023-02-06T10:13:11.611Z,-0.16
2023-02-06T10:15:48.006Z,-0.09
2023-02-06T10:18:16.565Z,-0.26
2023-02-06T10:20:53.774Z,-0.04
2023-02-06T10:23:36.469Z,-0.06
2023-02-06T10:26:18.108Z,0.05
2023-02-06T10:28:47.342Z,0.01
2023-02-06T10:31:26.109Z,-0.25
2023-02-06T10:33:52.589Z,-0.19
2023-02-06T10:36:37.126Z,0.08
2023-02-06T10:39:23.389Z,0.10
2023-02-06T10:41:52.822Z,0.21
2023-02-06T10:44:23.156Z,0.29
2023-02-06T10:46:51.011Z,0.49
2023-02-06T10:49:22.010Z,0.44
2023-02-06T10:51:53.470Z,0.62
2023-02-06T10:54:36.711Z,0.57
2023-02-06T10:57:05.005Z,0.73
2023-02-06T10:59:32.017Z,0.62
2023-02-06T11:02:08.601Z,0.42
2023-02-06T11:04:39.120Z,0.44
2023-02-06T11:07:15.117Z,0.38
2023-02-06T11:09:41.657Z,0.29
2023-02-06T11:12:20.286Z,0.28
2023-02-06T11:14:47.035Z,0.17
2023-02-06T11:17:21.591Z,0.01
2023-02-06T11:19:48.719Z,0.31
2023-02-06T11:22:16.623Z,0.22
2023-02-06T11:25:00.358Z,0.36
2023-02-06T11:27:27.721Z,0.29
2023-02-06T11:29:54.388Z,0.33
2023-02-06T11:32:35.956Z,0.42
2023-02-06T11:35:07.703Z,0.13
2023-02-06T11:37:34.195Z,0.20
2023-02-06T11:40:14.194Z,0.36
2023-02-06T11:42:40.730Z,0.23
2023-02-06T11:45:28.477Z,-0.02
2023-02-06T11:47:55.082Z,-0.01
2023-02-06T11:50:26.899Z,0.00
2023-02-06T11:52:58.548Z,0.00
2023-02-06T11:55:25.053Z,0.06
2023-02-06T11:58:21.140Z,-0.08
2023-02-06T12:00:54.710Z,-0.01
2023-02-06T12:03:35.830Z,-0.15
2023-02-06T12:06:08.653Z,-0.04
2023-02-06T12:08:49.048Z,-0.05
2023-02-06T12:11:23.868Z,0.15
2023-02-06T12:13:56.553Z,-0.01
2023-02-06T12:16:25.273Z,0.31
2023-02-06T12:18:54.242Z,0.32
2023-02-06T12:21:24.578Z,0.12
2023-02-06T12:24:00.242Z,-0.06
2023-02-06T12:26:30.626Z,0.02
2023-02-06T12:29:03.112Z,-0.13
2023-02-06T12:31:50.349Z,0.23
2023-02-06T12:34:49.444Z,-0.02
2023-02-06T12:37:23.078Z,0.13
2023-02-06T12:39:51.689Z,0.03
2023-02-06T12:42:18.277Z,0.00
2023-02-06T12:44:50.988Z,0.11
2023-02-06T12:47:25.979Z,-0.14
2023-02-06T12:50:11.205Z,-0.14
2023-02-06T12:52:53.817Z,-0.04
2023-02-06T12:55:43.404Z,-0.07
2023-02-06T12:58:28.182Z,0.11
2023-02-06T13:00:57.745Z,0.10
2023-02-06T13:03:32.510Z,0.14
2023-02-06T13:06:11.035Z,0.32
2023-02-06T13:08:43.577Z,0.27
2023-02-06T13:11:15.586Z,0.44
2023-02-06T13:13:42.439Z,0.41
2023-02-06T13:16:09.479Z,0.45
2023-02-06T13:18:41.931Z,0.50
2023-02-06T13:21:17.551Z,0.50
2023-02-06T13:24:10.457Z,0.56
2023-02-06T13:27:00.165Z,0.35
2023-02-06T13:29:26.676Z,0.38
2023-02-06T13:32:22.774Z,0.40
2023-02-06T13:34:49.244Z,0.30
2023-02-06T13:37:38.953Z,0.26
2023-02-06T13:40:21.098Z,0.12
2023-02-06T13:43:06.313Z,0.14
2023-02-06T13:45:32.934Z,0.16
2023-02-06T13:48:02.454Z,0.28
2023-02-06T13:50:35.031Z,0.33
2023-02-06T13:53:09.773Z,0.23
2023-02-06T13:55:47.879Z,0.35
2023-02-06T13:58:26.684Z,0.31
2023-02-06T14:00:54.805Z,0.13
2023-02-06T14:03:28.441Z,0.14
2023-02-06T14:06:05.918Z,0.24
2023-02-06T14:08:51.132Z,0.37
2023-02-06T14:11:36.166Z,0.08
2023-02-06T14:14:18.039Z,0.21
2023-02-06T14:16:53.696Z,0.13
2023-02-06T14:19:25.591Z,0.47
2023-02-06T14:22:10.580Z,0.28
2023-02-06T14:24:43.116Z,0.30
2023-02-06T14:27:18.511Z,0.28
2023-02-06T14:30:03.810Z,0.41
2023-02-06T14:32:42.521Z,0.45
2023-02-06T14:35:26.003Z,0.25
2023-02-06T14:37:55.560Z,0.32
2023-02-06T14:40:29.993Z,0.30
2023-02-06T14:43:01.425Z,0.12
2023-02-06T14:45:41.051Z,0.14
2023-02-06T14:48:17.161Z,0.14
2023-02-06T14:50:47.513Z,0.01
2023-02-06T14:53:17.040Z,-0.03
2023-02-06T14:55:47.471Z,-0.09
2023-02-06T14:58:28.296Z,-0.16
2023-02-06T15:00:55.806Z,-0.08
2023-02-06T15:03:24.656Z,0.00
2023-02-06T15:06:02.146Z,-0.17
2023-02-06T15:08:28.651Z,-0.19
2023-02-06T15:11:02.365Z,-0.33
2023-02-06T15:13:34.949Z,-0.40
2023-02-06T15:16:08.672Z,-0.47
2023-02-06T15:18:36.069Z,-0.49
2023-02-06T15:21:07.033Z,-0.60
2023-02-06T15:23:45.835Z,-0.70
2023-02-06T15:26:32.630Z,-0.67
2023-02-06T15:29:00.721Z,-0.71
2023-02-06T15:31:27.759Z,-0.78
2023-02-06T15:33:55.547Z,-0.82
2023-02-06T15:36:29.500Z,-0.88
2023-02-06T15:38:56.410Z,-1.00
2023-02-06T15:41:23.432Z,-1.04
2023-02-06T15:43:50.942Z,-1.10
2023-02-06T15:46:17.563Z,-1.16
2023-02-06T15:48:46.864Z,-1.26
2023-02-06T15:51:25.161Z,-1.28
2023-02-06T15:53:53.121Z,-1.32
2023-02-06T15:56:21.893Z,-1.41
2023-02-06T15:58:49.550Z,-1.43
2023-02-06T16:01:18.545Z,-1.43
2023-02-06T16:03:45.572Z,-1.50
2023-02-06T16:06:15.745Z,-1.58
2023-02-06T16:08:48.085Z,-1.67
2023-02-06T16:11:33.582Z,-1.66
2023-02-06T16:14:00.268Z,-1.55
2023-02-06T16:16:27.608Z,-1.64
2023-02-06T16:22:27.660Z,-1.82
2023-02-06T16:25:13.378Z,-1.93
2023-02-06T16:27:45.524Z,-2.08
2023-02-06T16:30:23.694Z,-2.13
2023-02-06T16:32:51.526Z,-2.19
2023-02-06T16:35:18.228Z,-2.24
2023-02-06T16:37:45.438Z,-2.25
2023-02-06T16:40:12.140Z,-2.30
2023-02-06T16:42:46.655Z,-2.40
2023-02-06T16:45:19.109Z,-2.45
2023-02-06T16:47:46.160Z,-2.47
2023-02-06T16:50:13.337Z,-2.46
2023-02-06T16:53:00.656Z,-2.50
2023-02-06T16:55:28.957Z,-2.47
2023-02-06T16:57:59.537Z,-2.54
2023-02-06T17:00:31.249Z,-2.58
2023-02-06T17:02:58.895Z,-2.63
2023-02-06T17:05:28.234Z,-2.54
2023-02-06T17:07:55.486Z,-2.61
2023-02-06T17:10:24.875Z,-2.66
2023-02-06T17:12:51.638Z,-2.75
2023-02-06T17:15:19.153Z,-2.80
2023-02-06T17:17:46.109Z,-2.85
2023-02-06T17:20:45.120Z,-2.89
2023-02-06T17:23:11.935Z,-2.88
2023-02-06T17:25:40.539Z,-2.93
2023-02-06T17:28:09.079Z,-2.99
2023-02-06T17:30:37.887Z,-2.99
2023-02-06T17:33:06.307Z,-3.11
2023-02-06T17:35:36.681Z,-3.12
2023-02-06T17:38:07.969Z,-3.18
2023-02-06T17:40:36.620Z,-3.18
2023-02-06T17:43:04.722Z,-3.26
2023-02-06T17:45:32.321Z,-3.26
2023-02-06T17:47:59.297Z,-3.25
2023-02-06T17:50:27.668Z,-3.25
2023-02-06T17:52:55.826Z,-3.39
2023-02-06T17:55:23.966Z,-3.39
2023-02-06T17:57:51.502Z,-3.42
2023-02-06T18:00:20.371Z,-3.42
2023-02-06T18:02:47.066Z,-3.45
2023-02-06T18:05:13.703Z,-3.47
2023-02-06T18:07:41.144Z,-3.52
2023-02-06T18:10:09.245Z,-3.57
2023-02-06T18:12:35.960Z,-3.64
2023-02-06T18:15:03.922Z,-3.70
2023-02-06T18:17:31.171Z,-3.78
2023-02-06T18:19:57.792Z,-3.79
2023-02-06T18:22:24.446Z,-3.73
2023-02-06T18:24:51.390Z,-3.83
2023-02-06T18:27:19.359Z,-3.84
2023-02-06T18:29:50.843Z,-3.89
2023-02-06T18:32:19.371Z,-3.91
2023-02-06T18:34:46.611Z,-3.93
2023-02-06T18:37:13.248Z,-4.01
2023-02-06T18:39:39.826Z,-3.97
2023-02-06T18:42:24.922Z,-3.99
2023-02-06T18:44:51.608Z,-4.04
2023-02-06T18:47:18.925Z,-4.04
2023-02-06T18:49:45.936Z,-4.05
2023-02-06T18:52:12.909Z,-4.10
2023-02-06T18:54:39.705Z,-4.10
2023-02-06T18:57:07.071Z,-4.12
2023-02-06T18:59:34.670Z,-4.11
2023-02-06T19:02:01.631Z,-4.10
2023-02-06T19:04:28.313Z,-4.15
2023-02-06T19:06:54.962Z,-4.26
2023-02-06T19:09:21.652Z,-4.29
2023-02-06T19:11:48.898Z,-4.35
2023-02-06T19:14:18.038Z,-4.33
2023-02-06T19:16:47.420Z,-4.30
2023-02-06T19:19:14.754Z,-4.33
2023-02-06T19:21:42.375Z,-4.38
2023-02-06T19:24:13.003Z,-4.50
2023-02-06T19:26:40.512Z,-4.53
2023-02-06T19:29:07.734Z,-4.57
2023-02-06T19:31:36.032Z,-4.63
2023-02-06T19:34:02.746Z,-4.52
2023-02-06T19:36:30.159Z,-4.55
2023-02-06T19:39:02.451Z,-4.56
2023-02-06T19:41:32.468Z,-4.65
2023-02-06T19:44:03.081Z,-4.67
2023-02-06T19:46:29.814Z,-4.63
2023-02-06T19:48:56.522Z,-4.65
2023-02-06T19:51:29.006Z,-4.65
2023-02-06T19:53:56.282Z,-4.67
2023-02-06T19:56:25.865Z,-4.73
2023-02-06T19:58:57.377Z,-4.85
2023-02-06T20:01:24.968Z,-4.94
2023-02-06T20:03:52.319Z,-4.97
2023-02-06T20:06:19.381Z,-4.94
2023-02-06T20:08:46.583Z,-5.03
2023-02-06T20:11:20.671Z,-4.90
2023-02-06T20:13:48.300Z,-4.88
2023-02-06T20:16:20.859Z,-4.96
2023-02-06T20:19:36.145Z,-4.98
2023-02-06T20:22:04.458Z,-5.10
2023-02-06T20:24:32.478Z,-5.13
2023-02-06T20:27:01.997Z,-5.13
2023-02-06T20:29:33.657Z,-5.08
2023-02-06T20:32:00.881Z,-5.08
2023-02-06T20:34:28.941Z,-5.17
2023-02-06T20:36:56.083Z,-5.13
2023-02-06T20:39:23.317Z,-5.16
2023-02-06T20:41:51.001Z,-5.12
2023-02-06T20:44:19.337Z,-5.15
2023-02-06T20:46:46.663Z,-5.17
2023-02-06T20:49:31.626Z,-5.24
2023-02-06T20:51:58.773Z,-5.29
2023-02-06T20:54:25.924Z,-5.21
2023-02-06T20:56:52.811Z,-5.32
2023-02-06T20:59:21.048Z,-5.35
2023-02-06T21:01:47.759Z,-5.41
2023-02-06T21:04:16.270Z,-5.45
2023-02-06T21:06:43.214Z,-5.50
2023-02-06T21:09:10.594Z,-5.54
2023-02-06T21:11:40.786Z,-5.37
2023-02-06T21:14:07.879Z,-5.35
2023-02-06T21:16:35.929Z,-5.41
2023-02-06T21:19:04.743Z,-5.39
2023-02-06T21:21:32.218Z,-5.41
2023-02-06T21:23:59.117Z,-5.50
2023-02-06T21:26:26.871Z,-5.61
2023-02-06T21:28:53.915Z,-5.72
2023-02-06T21:31:24.200Z,-5.75
2023-02-06T21:33:52.525Z,-5.75
2023-02-06T21:36:21.244Z,-5.82
2023-02-06T21:38:47.997Z,-5.72
2023-02-06T21:41:17.728Z,-5.61
2023-02-06T21:43:45.679Z,-5.60
2023-02-06T21:46:13.317Z,-5.65
2023-02-06T21:48:41.472Z,-5.70
2023-02-06T21:51:09.685Z,-5.76
2023-02-06T21:53:36.661Z,-5.81
2023-02-06T21:56:14.288Z,-5.81
2023-02-06T21:58:40.946Z,-5.76
2023-02-06T22:01:09.004Z,-5.77
2023-02-06T22:03:36.529Z,-5.86
2023-02-06T22:06:14.079Z,-5.77
2023-02-06T22:09:05.222Z,-5.75
2023-02-06T22:11:32.297Z,-5.91
2023-02-06T22:14:01.532Z,-5.97
2023-02-06T22:16:29.443Z,-6.00
2023-02-06T22:18:56.942Z,-6.00
2023-02-06T22:21:26.374Z,-6.01
2023-02-06T22:23:57.161Z,-6.08
2023-02-06T22:26:24.214Z,-6.13
2023-02-06T22:28:51.213Z,-6.21
2023-02-06T22:31:24.307Z,-6.13
2023-02-06T22:33:51.199Z,-6.00
2023-02-06T22:36:21.822Z,-6.02
2023-02-06T22:38:53.730Z,-5.99
2023-02-06T22:41:20.653Z,-6.04
2023-02-06T22:43:49.097Z,-6.00
2023-02-06T22:46:21.640Z,-6.11
2023-02-06T22:48:48.352Z,-6.08
2023-02-06T22:51:15.073Z,-6.08
2023-02-06T22:53:41.771Z,-6.06
2023-02-06T22:56:32.316Z,-6.13
2023-02-06T22:59:16.975Z,-6.07
2023-02-06T23:01:48.141Z,-6.12
2023-02-06T23:04:18.069Z,-6.25
2023-02-06T23:06:45.411Z,-6.27
2023-02-06T23:09:21.178Z,-6.23
2023-02-06T23:11:48.689Z,-6.27
2023-02-06T23:14:16.777Z,-6.26
2023-02-06T23:16:44.061Z,-6.33
2023-02-06T23:19:12.820Z,-6.40
2023-02-06T23:21:42.222Z,-6.52
2023-02-06T23:24:10.293Z,-6.59
2023-02-06T23:26:37.692Z,-6.65
2023-02-06T23:29:07.701Z,-6.66
2023-02-06T23:31:35.574Z,-6.53
2023-02-06T23:34:02.283Z,-6.50
2023-02-06T23:36:29.518Z,-6.53
2023-02-06T23:38:56.538Z,-6.66
2023-02-06T23:41:26.199Z,-6.67
2023-02-06T23:43:55.651Z,-6.59
2023-02-06T23:46:23.677Z,-6.52
2023-02-06T23:48:51.385Z,-6.49
2023-02-06T23:51:19.105Z,-6.59
2023-02-06T23:53:45.753Z,-6.68
2023-02-06T23:56:14.561Z,-6.67
2023-02-06T23:58:41.693Z,-6.65
